sensor_id;sensor_type;location;lat;lon;timestamp;temperature;humidity
32097;DHT22;18610;49.916;8.284;2022-12-29T00:00:17;11.30;99.90
32097;DHT22;18610;49.916;8.284;2022-12-29T00:02:43;11.30;99.90
32097;DHT22;18610;49.916;8.284;2022-12-29T00:05:10;11.30;99.90
32097;DHT22;18610;49.916;8.284;2022-12-29T00:07:37;11.40;99.90
32097;DHT22;18610;49.916;8.284;2022-12-29T00:10:06;11.40;99.90
32097;DHT22;18610;49.916;8.284;2022-12-29T00:12:33;11.40;99.90
32097;DHT22;18610;49.916;8.284;2022-12-29T00:15:14;11.40;99.90
32097;DHT22;18610;49.916;8.284;2022-12-29T00:17:58;11.40;99.90
32097;DHT22;18610;49.916;8.284;2022-12-29T00:20:25;11.40;99.90
32097;DHT22;18610;49.916;8.284;2022-12-29T00:23:09;11.50;99.90
32097;DHT22;18610;49.916;8.284;2022-12-29T00:25:55;11.40;99.90
32097;DHT22;18610;49.916;8.284;2022-12-29T00:28:39;11.50;99.90
32097;DHT22;18610;49.916;8.284;2022-12-29T00:31:23;11.50;99.90
32097;DHT22;18610;49.916;8.284;2022-12-29T00:34:10;11.50;99.90
32097;DHT22;18610;49.916;8.284;2022-12-29T00:36:56;11.50;99.90
32097;DHT22;18610;49.916;8.284;2022-12-29T00:39:23;11.60;99.90
32097;DHT22;18610;49.916;8.284;2022-12-29T00:42:20;11.60;99.90
32097;DHT22;18610;49.916;8.284;2022-12-29T00:45:05;11.50;99.90
32097;DHT22;18610;49.916;8.284;2022-12-29T00:47:32;11.50;99.90
32097;DHT22;18610;49.916;8.284;2022-12-29T00:49:58;11.50;99.90
32097;DHT22;18610;49.916;8.284;2022-12-29T00:52:24;11.50;99.90
32097;DHT22;18610;49.916;8.284;2022-12-29T00:54:51;11.50;99.90
32097;DHT22;18610;49.916;8.284;2022-12-29T00:57:19;11.50;99.90
32097;DHT22;18610;49.916;8.284;2022-12-29T00:59:46;11.50;99.90
32097;DHT22;18610;49.916;8.284;2022-12-29T01:02:13;11.50;99.90
32097;DHT22;18610;49.916;8.284;2022-12-29T01:04:39;11.50;99.90
32097;DHT22;18610;49.916;8.284;2022-12-29T01:07:06;11.40;99.90
32097;DHT22;18610;49.916;8.284;2022-12-29T01:09:33;11.40;99.90
32097;DHT22;18610;49.916;8.284;2022-12-29T01:12:17;11.40;99.90
32097;DHT22;18610;49.916;8.284;2022-12-29T01:15:08;11.40;99.90
32097;DHT22;18610;49.916;8.284;2022-12-29T01:17:35;11.40;99.90
32097;DHT22;18610;49.916;8.284;2022-12-29T01:20:03;11.40;99.90
32097;DHT22;18610;49.916;8.284;2022-12-29T01:22:30;11.40;99.90
32097;DHT22;18610;49.916;8.284;2022-12-29T01:24:57;11.30;99.90
32097;DHT22;18610;49.916;8.284;2022-12-29T01:27:24;11.30;99.90
32097;DHT22;18610;49.916;8.284;2022-12-29T01:29:50;11.30;99.90
32097;DHT22;18610;49.916;8.284;2022-12-29T01:32:19;11.30;99.90
32097;DHT22;18610;49.916;8.284;2022-12-29T01:34:45;11.30;99.90
32097;DHT22;18610;49.916;8.284;2022-12-29T01:37:12;11.30;99.90
32097;DHT22;18610;49.916;8.284;2022-12-29T01:39:39;11.30;99.90
32097;DHT22;18610;49.916;8.284;2022-12-29T01:42:13;11.30;99.90
32097;DHT22;18610;49.916;8.284;2022-12-29T01:44:50;11.30;99.90
32097;DHT22;18610;49.916;8.284;2022-12-29T01:47:31;11.30;99.90
32097;DHT22;18610;49.916;8.284;2022-12-29T01:50:05;11.30;99.90
32097;DHT22;18610;49.916;8.284;2022-12-29T01:52:35;11.30;99.90
32097;DHT22;18610;49.916;8.284;2022-12-29T01:55:05;11.20;99.90
32097;DHT22;18610;49.916;8.284;2022-12-29T01:57:36;11.20;99.90
32097;DHT22;18610;49.916;8.284;2022-12-29T02:00:06;11.20;99.90
32097;DHT22;18610;49.916;8.284;2022-12-29T02:02:35;11.20;99.90
32097;DHT22;18610;49.916;8.284;2022-12-29T02:05:07;11.20;99.90
32097;DHT22;18610;49.916;8.284;2022-12-29T02:07:35;11.20;99.90
32097;DHT22;18610;49.916;8.284;2022-12-29T02:10:05;11.20;99.90
32097;DHT22;18610;49.916;8.284;2022-12-29T02:12:32;11.20;99.90
32097;DHT22;18610;49.916;8.284;2022-12-29T02:15:00;11.10;99.90
32097;DHT22;18610;49.916;8.284;2022-12-29T02:17:38;11.20;99.90
32097;DHT22;18610;49.916;8.284;2022-12-29T02:23:29;11.10;99.90
32097;DHT22;18610;49.916;8.284;2022-12-29T02:26:06;11.10;99.90
32097;DHT22;18610;49.916;8.284;2022-12-29T02:31:41;11.00;99.90
32097;DHT22;18610;49.916;8.284;2022-12-29T02:34:20;11.10;99.90
32097;DHT22;18610;49.916;8.284;2022-12-29T02:36:56;11.10;99.90
32097;DHT22;18610;49.916;8.284;2022-12-29T02:39:33;11.10;99.90
32097;DHT22;18610;49.916;8.284;2022-12-29T02:42:08;11.10;99.90
32097;DHT22;18610;49.916;8.284;2022-12-29T02:44:45;11.10;99.90
32097;DHT22;18610;49.916;8.284;2022-12-29T02:47:23;11.00;99.90
32097;DHT22;18610;49.916;8.284;2022-12-29T02:49:57;11.00;99.90
32097;DHT22;18610;49.916;8.284;2022-12-29T02:52:27;11.00;99.90
32097;DHT22;18610;49.916;8.284;2022-12-29T02:54:58;11.00;99.90
32097;DHT22;18610;49.916;8.284;2022-12-29T02:57:30;11.00;99.90
32097;DHT22;18610;49.916;8.284;2022-12-29T03:00:02;11.00;99.90
32097;DHT22;18610;49.916;8.284;2022-12-29T03:02:45;11.00;99.90
32097;DHT22;18610;49.916;8.284;2022-12-29T03:05:22;11.00;99.90
32097;DHT22;18610;49.916;8.284;2022-12-29T03:07:58;11.00;99.90
32097;DHT22;18610;49.916;8.284;2022-12-29T03:10:35;11.10;99.90
32097;DHT22;18610;49.916;8.284;2022-12-29T03:13:10;11.10;99.90
32097;DHT22;18610;49.916;8.284;2022-12-29T03:16:00;11.10;99.90
32097;DHT22;18610;49.916;8.284;2022-12-29T03:18:39;11.10;99.90
32097;DHT22;18610;49.916;8.284;2022-12-29T03:21:11;11.10;99.90
32097;DHT22;18610;49.916;8.284;2022-12-29T03:23:41;11.10;99.90
32097;DHT22;18610;49.916;8.284;2022-12-29T03:26:14;11.10;99.90
32097;DHT22;18610;49.916;8.284;2022-12-29T03:28:47;11.10;99.90
32097;DHT22;18610;49.916;8.284;2022-12-29T03:31:16;11.10;99.90
32097;DHT22;18610;49.916;8.284;2022-12-29T03:33:46;11.10;99.90
32097;DHT22;18610;49.916;8.284;2022-12-29T03:36:20;11.10;99.90
32097;DHT22;18610;49.916;8.284;2022-12-29T03:38:53;11.20;99.90
32097;DHT22;18610;49.916;8.284;2022-12-29T03:41:24;11.20;99.90
32097;DHT22;18610;49.916;8.284;2022-12-29T03:43:52;11.20;99.90
32097;DHT22;18610;49.916;8.284;2022-12-29T03:46:18;11.20;99.90
32097;DHT22;18610;49.916;8.284;2022-12-29T03:48:47;11.20;99.90
32097;DHT22;18610;49.916;8.284;2022-12-29T03:51:13;11.30;99.90
32097;DHT22;18610;49.916;8.284;2022-12-29T03:53:40;11.30;99.90
32097;DHT22;18610;49.916;8.284;2022-12-29T03:56:07;11.20;99.90
32097;DHT22;18610;49.916;8.284;2022-12-29T03:58:34;11.30;99.90
32097;DHT22;18610;49.916;8.284;2022-12-29T04:01:01;11.30;99.90
32097;DHT22;18610;49.916;8.284;2022-12-29T04:03:27;11.30;99.90
32097;DHT22;18610;49.916;8.284;2022-12-29T04:05:55;11.30;99.90
32097;DHT22;18610;49.916;8.284;2022-12-29T04:08:22;11.40;99.90
32097;DHT22;18610;49.916;8.284;2022-12-29T04:10:49;11.40;99.90
32097;DHT22;18610;49.916;8.284;2022-12-29T04:13:16;11.40;99.90
32097;DHT22;18610;49.916;8.284;2022-12-29T04:15:43;11.40;99.90
32097;DHT22;18610;49.916;8.284;2022-12-29T04:18:10;11.40;99.90
32097;DHT22;18610;49.916;8.284;2022-12-29T04:20:37;11.40;99.90
32097;DHT22;18610;49.916;8.284;2022-12-29T04:23:23;11.50;99.90
32097;DHT22;18610;49.916;8.284;2022-12-29T04:25:50;11.50;99.90
32097;DHT22;18610;49.916;8.284;2022-12-29T04:28:17;11.50;99.90
32097;DHT22;18610;49.916;8.284;2022-12-29T04:30:45;11.50;99.90
32097;DHT22;18610;49.916;8.284;2022-12-29T04:33:12;11.50;99.90
32097;DHT22;18610;49.916;8.284;2022-12-29T04:35:38;11.50;99.90
32097;DHT22;18610;49.916;8.284;2022-12-29T04:38:05;11.50;99.90
32097;DHT22;18610;49.916;8.284;2022-12-29T04:40:33;11.50;99.90
32097;DHT22;18610;49.916;8.284;2022-12-29T04:43:00;11.50;99.90
32097;DHT22;18610;49.916;8.284;2022-12-29T04:45:27;11.50;99.90
32097;DHT22;18610;49.916;8.284;2022-12-29T04:47:54;11.50;99.90
32097;DHT22;18610;49.916;8.284;2022-12-29T04:50:21;11.50;99.90
32097;DHT22;18610;49.916;8.284;2022-12-29T04:52:47;11.40;99.90
32097;DHT22;18610;49.916;8.284;2022-12-29T04:55:14;11.30;99.90
32097;DHT22;18610;49.916;8.284;2022-12-29T04:57:42;11.30;99.90
32097;DHT22;18610;49.916;8.284;2022-12-29T05:00:10;11.20;99.90
32097;DHT22;18610;49.916;8.284;2022-12-29T05:02:38;11.20;99.90
32097;DHT22;18610;49.916;8.284;2022-12-29T05:05:05;11.10;99.90
32097;DHT22;18610;49.916;8.284;2022-12-29T05:07:32;11.10;99.90
32097;DHT22;18610;49.916;8.284;2022-12-29T05:09:59;11.10;99.90
32097;DHT22;18610;49.916;8.284;2022-12-29T05:12:29;11.10;99.90
32097;DHT22;18610;49.916;8.284;2022-12-29T05:14:57;11.10;99.90
32097;DHT22;18610;49.916;8.284;2022-12-29T05:17:25;11.10;99.90
32097;DHT22;18610;49.916;8.284;2022-12-29T05:19:52;11.10;99.90
32097;DHT22;18610;49.916;8.284;2022-12-29T05:22:18;11.10;99.90
32097;DHT22;18610;49.916;8.284;2022-12-29T05:24:45;11.10;99.90
32097;DHT22;18610;49.916;8.284;2022-12-29T05:27:12;11.10;99.90
32097;DHT22;18610;49.916;8.284;2022-12-29T05:29:38;11.10;99.90
32097;DHT22;18610;49.916;8.284;2022-12-29T05:32:06;11.00;99.90
32097;DHT22;18610;49.916;8.284;2022-12-29T05:34:33;11.10;99.90
32097;DHT22;18610;49.916;8.284;2022-12-29T05:37:00;11.10;99.90
32097;DHT22;18610;49.916;8.284;2022-12-29T05:39:27;11.10;99.90
32097;DHT22;18610;49.916;8.284;2022-12-29T05:41:54;11.20;99.90
32097;DHT22;18610;49.916;8.284;2022-12-29T05:44:21;11.20;99.90
32097;DHT22;18610;49.916;8.284;2022-12-29T05:46:48;11.30;99.90
32097;DHT22;18610;49.916;8.284;2022-12-29T05:49:16;11.30;99.90
32097;DHT22;18610;49.916;8.284;2022-12-29T05:51:43;11.30;99.90
32097;DHT22;18610;49.916;8.284;2022-12-29T05:54:10;11.30;99.90
32097;DHT22;18610;49.916;8.284;2022-12-29T05:56:36;11.30;99.90
32097;DHT22;18610;49.916;8.284;2022-12-29T05:59:03;11.40;99.90
32097;DHT22;18610;49.916;8.284;2022-12-29T06:01:30;11.40;99.90
32097;DHT22;18610;49.916;8.284;2022-12-29T06:03:56;11.40;99.90
32097;DHT22;18610;49.916;8.284;2022-12-29T06:06:24;11.50;99.90
32097;DHT22;18610;49.916;8.284;2022-12-29T06:08:51;11.50;99.90
32097;DHT22;18610;49.916;8.284;2022-12-29T06:11:18;11.60;99.90
32097;DHT22;18610;49.916;8.284;2022-12-29T06:13:45;11.60;99.90
32097;DHT22;18610;49.916;8.284;2022-12-29T06:16:11;11.60;99.90
32097;DHT22;18610;49.916;8.284;2022-12-29T06:18:38;11.60;99.90
32097;DHT22;18610;49.916;8.284;2022-12-29T06:21:05;11.60;99.90
32097;DHT22;18610;49.916;8.284;2022-12-29T06:23:33;11.60;99.90
32097;DHT22;18610;49.916;8.284;2022-12-29T06:26:00;11.60;99.90
32097;DHT22;18610;49.916;8.284;2022-12-29T06:28:27;11.60;99.90
32097;DHT22;18610;49.916;8.284;2022-12-29T06:30:53;11.70;99.90
32097;DHT22;18610;49.916;8.284;2022-12-29T06:33:20;11.70;99.90
32097;DHT22;18610;49.916;8.284;2022-12-29T06:35:47;11.70;99.90
32097;DHT22;18610;49.916;8.284;2022-12-29T06:38:14;11.70;99.90
32097;DHT22;18610;49.916;8.284;2022-12-29T06:40:43;11.70;99.90
32097;DHT22;18610;49.916;8.284;2022-12-29T06:43:10;11.70;99.90
32097;DHT22;18610;49.916;8.284;2022-12-29T06:45:38;11.60;99.90
32097;DHT22;18610;49.916;8.284;2022-12-29T06:48:05;11.60;99.90
32097;DHT22;18610;49.916;8.284;2022-12-29T06:50:32;11.60;99.90
32097;DHT22;18610;49.916;8.284;2022-12-29T06:52:59;11.60;99.90
32097;DHT22;18610;49.916;8.284;2022-12-29T06:55:25;11.60;99.90
32097;DHT22;18610;49.916;8.284;2022-12-29T06:57:55;11.60;99.90
32097;DHT22;18610;49.916;8.284;2022-12-29T07:00:22;11.60;99.90
32097;DHT22;18610;49.916;8.284;2022-12-29T07:02:49;11.50;99.90
32097;DHT22;18610;49.916;8.284;2022-12-29T07:05:16;11.60;99.90
32097;DHT22;18610;49.916;8.284;2022-12-29T07:07:43;11.60;99.90
32097;DHT22;18610;49.916;8.284;2022-12-29T07:10:10;11.60;99.90
32097;DHT22;18610;49.916;8.284;2022-12-29T07:12:36;11.70;99.90
32097;DHT22;18610;49.916;8.284;2022-12-29T07:15:05;11.60;99.90
32097;DHT22;18610;49.916;8.284;2022-12-29T07:17:32;11.70;99.90
32097;DHT22;18610;49.916;8.284;2022-12-29T07:19:59;11.70;99.90
32097;DHT22;18610;49.916;8.284;2022-12-29T07:22:26;11.70;99.90
32097;DHT22;18610;49.916;8.284;2022-12-29T07:24:53;11.70;99.90
32097;DHT22;18610;49.916;8.284;2022-12-29T07:27:19;11.80;99.90
32097;DHT22;18610;49.916;8.284;2022-12-29T07:29:46;11.80;99.90
32097;DHT22;18610;49.916;8.284;2022-12-29T07:32:14;11.90;99.90
32097;DHT22;18610;49.916;8.284;2022-12-29T07:34:41;11.80;99.90
32097;DHT22;18610;49.916;8.284;2022-12-29T07:37:10;11.80;99.90
32097;DHT22;18610;49.916;8.284;2022-12-29T07:39:37;11.80;99.90
32097;DHT22;18610;49.916;8.284;2022-12-29T07:42:04;11.80;99.90
32097;DHT22;18610;49.916;8.284;2022-12-29T07:44:30;11.80;99.90
32097;DHT22;18610;49.916;8.284;2022-12-29T07:46:57;11.70;99.90
32097;DHT22;18610;49.916;8.284;2022-12-29T07:49:25;11.70;99.90
32097;DHT22;18610;49.916;8.284;2022-12-29T07:51:52;11.70;99.90
32097;DHT22;18610;49.916;8.284;2022-12-29T07:54:19;11.80;99.90
32097;DHT22;18610;49.916;8.284;2022-12-29T07:56:48;11.80;99.90
32097;DHT22;18610;49.916;8.284;2022-12-29T07:59:14;11.70;99.90
32097;DHT22;18610;49.916;8.284;2022-12-29T08:01:41;11.80;99.90
32097;DHT22;18610;49.916;8.284;2022-12-29T08:04:08;11.70;99.90
32097;DHT22;18610;49.916;8.284;2022-12-29T08:06:36;11.70;99.90
32097;DHT22;18610;49.916;8.284;2022-12-29T08:09:03;11.70;99.90
32097;DHT22;18610;49.916;8.284;2022-12-29T08:11:30;11.70;99.90
32097;DHT22;18610;49.916;8.284;2022-12-29T08:13:57;11.70;99.90
32097;DHT22;18610;49.916;8.284;2022-12-29T08:16:24;11.70;99.90
32097;DHT22;18610;49.916;8.284;2022-12-29T08:18:51;11.70;99.90
32097;DHT22;18610;49.916;8.284;2022-12-29T08:21:18;11.70;99.90
32097;DHT22;18610;49.916;8.284;2022-12-29T08:23:47;11.70;99.90
32097;DHT22;18610;49.916;8.284;2022-12-29T08:26:14;11.70;99.90
32097;DHT22;18610;49.916;8.284;2022-12-29T08:28:40;11.70;99.90
32097;DHT22;18610;49.916;8.284;2022-12-29T08:31:07;11.70;99.90
32097;DHT22;18610;49.916;8.284;2022-12-29T08:33:34;11.70;99.90
32097;DHT22;18610;49.916;8.284;2022-12-29T08:36:01;11.70;99.90
32097;DHT22;18610;49.916;8.284;2022-12-29T08:38:30;11.80;99.90
32097;DHT22;18610;49.916;8.284;2022-12-29T08:40:59;11.80;99.90
32097;DHT22;18610;49.916;8.284;2022-12-29T08:43:27;11.80;99.90
32097;DHT22;18610;49.916;8.284;2022-12-29T08:45:54;11.80;99.90
32097;DHT22;18610;49.916;8.284;2022-12-29T08:48:21;11.80;99.90
32097;DHT22;18610;49.916;8.284;2022-12-29T08:50:50;11.70;99.90
32097;DHT22;18610;49.916;8.284;2022-12-29T08:53:17;11.80;99.90
32097;DHT22;18610;49.916;8.284;2022-12-29T08:55:44;11.80;99.90
32097;DHT22;18610;49.916;8.284;2022-12-29T08:58:13;11.90;99.90
32097;DHT22;18610;49.916;8.284;2022-12-29T09:00:42;12.00;99.90
32097;DHT22;18610;49.916;8.284;2022-12-29T09:03:09;12.00;99.90
32097;DHT22;18610;49.916;8.284;2022-12-29T09:05:35;12.00;99.90
32097;DHT22;18610;49.916;8.284;2022-12-29T09:08:02;12.00;99.90
32097;DHT22;18610;49.916;8.284;2022-12-29T09:10:30;12.00;99.90
32097;DHT22;18610;49.916;8.284;2022-12-29T09:12:56;12.00;99.90
32097;DHT22;18610;49.916;8.284;2022-12-29T09:15:25;12.00;99.90
32097;DHT22;18610;49.916;8.284;2022-12-29T09:17:51;12.00;99.90
32097;DHT22;18610;49.916;8.284;2022-12-29T09:20:19;12.00;99.90
32097;DHT22;18610;49.916;8.284;2022-12-29T09:22:46;12.00;99.90
32097;DHT22;18610;49.916;8.284;2022-12-29T09:25:14;11.90;99.90
32097;DHT22;18610;49.916;8.284;2022-12-29T09:27:40;11.90;99.90
32097;DHT22;18610;49.916;8.284;2022-12-29T09:30:09;11.90;99.90
32097;DHT22;18610;49.916;8.284;2022-12-29T09:32:38;11.80;99.90
32097;DHT22;18610;49.916;8.284;2022-12-29T09:35:05;11.80;99.90
32097;DHT22;18610;49.916;8.284;2022-12-29T09:37:31;11.70;99.90
32097;DHT22;18610;49.916;8.284;2022-12-29T09:39:59;11.70;99.90
32097;DHT22;18610;49.916;8.284;2022-12-29T09:42:28;11.50;99.90
32097;DHT22;18610;49.916;8.284;2022-12-29T09:45:05;11.40;99.90
32097;DHT22;18610;49.916;8.284;2022-12-29T09:47:32;11.40;99.90
32097;DHT22;18610;49.916;8.284;2022-12-29T09:50:03;11.30;99.90
32097;DHT22;18610;49.916;8.284;2022-12-29T09:52:35;11.20;99.90
32097;DHT22;18610;49.916;8.284;2022-12-29T09:55:04;11.20;99.90
32097;DHT22;18610;49.916;8.284;2022-12-29T09:57:35;11.10;99.90
32097;DHT22;18610;49.916;8.284;2022-12-29T10:00:06;11.10;99.90
32097;DHT22;18610;49.916;8.284;2022-12-29T10:02:38;10.90;99.90
32097;DHT22;18610;49.916;8.284;2022-12-29T10:05:20;10.90;99.90
32097;DHT22;18610;49.916;8.284;2022-12-29T10:07:55;10.80;99.90
32097;DHT22;18610;49.916;8.284;2022-12-29T10:10:31;10.70;99.90
32097;DHT22;18610;49.916;8.284;2022-12-29T10:13:15;10.70;99.90
32097;DHT22;18610;49.916;8.284;2022-12-29T10:15:54;10.70;99.90
32097;DHT22;18610;49.916;8.284;2022-12-29T10:18:48;10.60;99.90
32097;DHT22;18610;49.916;8.284;2022-12-29T10:21:27;10.60;99.90
32097;DHT22;18610;49.916;8.284;2022-12-29T10:23:56;10.60;99.90
32097;DHT22;18610;49.916;8.284;2022-12-29T10:26:26;10.60;99.90
32097;DHT22;18610;49.916;8.284;2022-12-29T10:28:57;10.60;99.90
32097;DHT22;18610;49.916;8.284;2022-12-29T10:31:32;10.60;99.90
32097;DHT22;18610;49.916;8.284;2022-12-29T10:34:03;10.70;99.90
32097;DHT22;18610;49.916;8.284;2022-12-29T10:36:38;10.70;99.90
32097;DHT22;18610;49.916;8.284;2022-12-29T10:39:11;10.70;99.90
32097;DHT22;18610;49.916;8.284;2022-12-29T10:41:43;10.70;99.90
32097;DHT22;18610;49.916;8.284;2022-12-29T10:44:15;10.70;99.90
32097;DHT22;18610;49.916;8.284;2022-12-29T10:46:44;10.80;99.90
32097;DHT22;18610;49.916;8.284;2022-12-29T10:49:16;10.80;99.90
32097;DHT22;18610;49.916;8.284;2022-12-29T10:51:46;10.80;99.90
32097;DHT22;18610;49.916;8.284;2022-12-29T10:54:21;11.00;99.90
32097;DHT22;18610;49.916;8.284;2022-12-29T10:56:53;11.00;99.90
32097;DHT22;18610;49.916;8.284;2022-12-29T10:59:23;11.00;99.90
32097;DHT22;18610;49.916;8.284;2022-12-29T11:01:57;11.10;99.90
32097;DHT22;18610;49.916;8.284;2022-12-29T11:04:49;11.20;99.90
32097;DHT22;18610;49.916;8.284;2022-12-29T11:07:20;11.30;99.90
32097;DHT22;18610;49.916;8.284;2022-12-29T11:09:47;11.30;99.90
32097;DHT22;18610;49.916;8.284;2022-12-29T11:12:19;11.40;99.90
32097;DHT22;18610;49.916;8.284;2022-12-29T11:14:46;11.60;99.90
32097;DHT22;18610;49.916;8.284;2022-12-29T11:17:15;11.70;99.90
32097;DHT22;18610;49.916;8.284;2022-12-29T11:19:42;11.80;99.90
32097;DHT22;18610;49.916;8.284;2022-12-29T11:22:14;11.90;99.90
32097;DHT22;18610;49.916;8.284;2022-12-29T11:24:49;11.80;99.90
32097;DHT22;18610;49.916;8.284;2022-12-29T11:27:17;11.90;99.90
32097;DHT22;18610;49.916;8.284;2022-12-29T11:29:45;11.80;99.90
32097;DHT22;18610;49.916;8.284;2022-12-29T11:32:17;11.80;99.90
32097;DHT22;18610;49.916;8.284;2022-12-29T11:34:45;11.80;99.90
32097;DHT22;18610;49.916;8.284;2022-12-29T11:37:13;11.90;99.90
32097;DHT22;18610;49.916;8.284;2022-12-29T11:39:44;12.00;99.90
32097;DHT22;18610;49.916;8.284;2022-12-29T11:42:16;12.10;99.90
32097;DHT22;18610;49.916;8.284;2022-12-29T11:44:44;12.10;99.90
32097;DHT22;18610;49.916;8.284;2022-12-29T11:47:21;12.10;99.90
32097;DHT22;18610;49.916;8.284;2022-12-29T11:49:50;12.20;99.90
32097;DHT22;18610;49.916;8.284;2022-12-29T11:52:24;12.10;99.90
32097;DHT22;18610;49.916;8.284;2022-12-29T11:54:53;12.10;99.90
32097;DHT22;18610;49.916;8.284;2022-12-29T11:57:22;12.00;99.90
32097;DHT22;18610;49.916;8.284;2022-12-29T11:59:51;12.00;99.90
32097;DHT22;18610;49.916;8.284;2022-12-29T12:02:38;12.00;99.90
32097;DHT22;18610;49.916;8.284;2022-12-29T12:05:22;12.00;99.90
32097;DHT22;18610;49.916;8.284;2022-12-29T12:07:52;11.90;99.90
32097;DHT22;18610;49.916;8.284;2022-12-29T12:10:24;12.00;99.90
32097;DHT22;18610;49.916;8.284;2022-12-29T12:13:01;12.00;99.90
32097;DHT22;18610;49.916;8.284;2022-12-29T12:15:33;12.00;99.90
32097;DHT22;18610;49.916;8.284;2022-12-29T12:18:05;12.00;99.90
32097;DHT22;18610;49.916;8.284;2022-12-29T12:20:41;12.00;99.90
32097;DHT22;18610;49.916;8.284;2022-12-29T12:23:30;12.00;99.90
32097;DHT22;18610;49.916;8.284;2022-12-29T12:26:02;12.00;99.90
32097;DHT22;18610;49.916;8.284;2022-12-29T12:28:40;11.90;99.90
32097;DHT22;18610;49.916;8.284;2022-12-29T12:31:17;11.90;99.90
32097;DHT22;18610;49.916;8.284;2022-12-29T12:33:47;11.90;99.90
32097;DHT22;18610;49.916;8.284;2022-12-29T12:36:30;11.90;99.90
32097;DHT22;18610;49.916;8.284;2022-12-29T12:39:06;11.80;99.90
32097;DHT22;18610;49.916;8.284;2022-12-29T12:41:46;11.90;99.90
32097;DHT22;18610;49.916;8.284;2022-12-29T12:44:22;11.90;99.90
32097;DHT22;18610;49.916;8.284;2022-12-29T12:47:18;12.00;99.90
32097;DHT22;18610;49.916;8.284;2022-12-29T12:50:14;12.00;99.90
32097;DHT22;18610;49.916;8.284;2022-12-29T12:55:42;11.90;99.90
32097;DHT22;18610;49.916;8.284;2022-12-29T12:58:17;11.90;99.90
32097;DHT22;18610;49.916;8.284;2022-12-29T13:01:02;12.00;99.90
32097;DHT22;18610;49.916;8.284;2022-12-29T13:03:44;11.90;99.90
32097;DHT22;18610;49.916;8.284;2022-12-29T13:06:18;11.90;99.90
32097;DHT22;18610;49.916;8.284;2022-12-29T13:09:08;11.90;99.90
32097;DHT22;18610;49.916;8.284;2022-12-29T13:11:51;12.00;99.90
32097;DHT22;18610;49.916;8.284;2022-12-29T13:14:29;12.00;99.90
32097;DHT22;18610;49.916;8.284;2022-12-29T13:17:11;12.00;99.90
32097;DHT22;18610;49.916;8.284;2022-12-29T13:19:43;12.00;99.90
32097;DHT22;18610;49.916;8.284;2022-12-29T13:22:17;12.00;99.90
32097;DHT22;18610;49.916;8.284;2022-12-29T13:24:56;11.90;99.90
32097;DHT22;18610;49.916;8.284;2022-12-29T13:27:33;11.90;99.90
32097;DHT22;18610;49.916;8.284;2022-12-29T13:30:04;11.90;99.90
32097;DHT22;18610;49.916;8.284;2022-12-29T13:32:42;11.80;99.90
32097;DHT22;18610;49.916;8.284;2022-12-29T13:35:25;11.90;99.90
32097;DHT22;18610;49.916;8.284;2022-12-29T13:37:56;11.90;99.90
32097;DHT22;18610;49.916;8.284;2022-12-29T13:40:28;11.90;99.90
32097;DHT22;18610;49.916;8.284;2022-12-29T13:43:00;11.90;99.90
32097;DHT22;18610;49.916;8.284;2022-12-29T13:45:30;11.90;99.90
32097;DHT22;18610;49.916;8.284;2022-12-29T13:48:02;11.90;99.90
32097;DHT22;18610;49.916;8.284;2022-12-29T13:50:35;11.90;99.90
32097;DHT22;18610;49.916;8.284;2022-12-29T13:53:10;11.90;99.90
32097;DHT22;18610;49.916;8.284;2022-12-29T13:55:44;11.90;99.90
32097;DHT22;18610;49.916;8.284;2022-12-29T13:58:17;11.90;99.90
32097;DHT22;18610;49.916;8.284;2022-12-29T14:00:52;11.90;99.90
32097;DHT22;18610;49.916;8.284;2022-12-29T14:03:46;11.90;99.90
32097;DHT22;18610;49.916;8.284;2022-12-29T14:06:21;11.80;99.90
32097;DHT22;18610;49.916;8.284;2022-12-29T14:08:50;11.80;99.90
32097;DHT22;18610;49.916;8.284;2022-12-29T14:11:20;11.80;99.90
32097;DHT22;18610;49.916;8.284;2022-12-29T14:13:47;11.80;99.90
32097;DHT22;18610;49.916;8.284;2022-12-29T14:16:31;11.80;99.90
32097;DHT22;18610;49.916;8.284;2022-12-29T14:19:11;11.80;99.90
32097;DHT22;18610;49.916;8.284;2022-12-29T14:21:39;11.90;99.90
32097;DHT22;18610;49.916;8.284;2022-12-29T14:24:37;11.90;99.90
32097;DHT22;18610;49.916;8.284;2022-12-29T14:30:46;11.90;99.90
32097;DHT22;18610;49.916;8.284;2022-12-29T14:33:14;12.00;99.90
32097;DHT22;18610;49.916;8.284;2022-12-29T14:35:43;12.30;99.90
32097;DHT22;18610;49.916;8.284;2022-12-29T14:38:25;12.40;99.90
32097;DHT22;18610;49.916;8.284;2022-12-29T14:41:17;12.60;99.90
32097;DHT22;18610;49.916;8.284;2022-12-29T14:43:53;12.70;99.90
32097;DHT22;18610;49.916;8.284;2022-12-29T14:46:20;12.80;99.90
32097;DHT22;18610;49.916;8.284;2022-12-29T14:48:47;12.80;99.90
32097;DHT22;18610;49.916;8.284;2022-12-29T14:51:31;12.80;99.90
32097;DHT22;18610;49.916;8.284;2022-12-29T14:54:34;12.90;99.90
32097;DHT22;18610;49.916;8.284;2022-12-29T14:57:11;13.00;99.90
32097;DHT22;18610;49.916;8.284;2022-12-29T14:59:40;13.00;99.90
32097;DHT22;18610;49.916;8.284;2022-12-29T15:02:15;13.00;99.90
32097;DHT22;18610;49.916;8.284;2022-12-29T15:04:43;13.10;99.90
32097;DHT22;18610;49.916;8.284;2022-12-29T15:07:13;13.00;99.90
32097;DHT22;18610;49.916;8.284;2022-12-29T15:09:43;12.80;99.90
32097;DHT22;18610;49.916;8.284;2022-12-29T15:12:20;12.70;99.90
32097;DHT22;18610;49.916;8.284;2022-12-29T15:14:52;12.50;99.90
32097;DHT22;18610;49.916;8.284;2022-12-29T15:17:26;12.30;99.90
32097;DHT22;18610;49.916;8.284;2022-12-29T15:19:54;12.20;99.90
32097;DHT22;18610;49.916;8.284;2022-12-29T15:22:23;12.10;99.90
32097;DHT22;18610;49.916;8.284;2022-12-29T15:24:50;12.00;99.90
32097;DHT22;18610;49.916;8.284;2022-12-29T15:27:20;11.90;99.90
32097;DHT22;18610;49.916;8.284;2022-12-29T15:29:47;11.80;99.90
32097;DHT22;18610;49.916;8.284;2022-12-29T15:32:20;11.80;99.90
32097;DHT22;18610;49.916;8.284;2022-12-29T15:34:48;11.70;99.90
32097;DHT22;18610;49.916;8.284;2022-12-29T15:37:22;11.60;99.90
32097;DHT22;18610;49.916;8.284;2022-12-29T15:39:50;11.50;99.90
32097;DHT22;18610;49.916;8.284;2022-12-29T15:42:30;11.40;99.90
32097;DHT22;18610;49.916;8.284;2022-12-29T15:44:59;11.40;99.90
32097;DHT22;18610;49.916;8.284;2022-12-29T15:47:30;11.30;99.90
32097;DHT22;18610;49.916;8.284;2022-12-29T15:50:01;11.30;99.90
32097;DHT22;18610;49.916;8.284;2022-12-29T15:52:31;11.20;99.90
32097;DHT22;18610;49.916;8.284;2022-12-29T15:54:59;11.10;99.90
32097;DHT22;18610;49.916;8.284;2022-12-29T15:57:28;11.10;99.90
32097;DHT22;18610;49.916;8.284;2022-12-29T15:59:55;11.00;99.90
32097;DHT22;18610;49.916;8.284;2022-12-29T16:02:23;11.00;99.90
32097;DHT22;18610;49.916;8.284;2022-12-29T16:04:51;10.90;99.90
32097;DHT22;18610;49.916;8.284;2022-12-29T16:07:26;10.90;99.90